VOCB/CJB METAR and TAF weather

Enter ICAO airport designator
Station Type Date Time Source
VOCB METAR 2021/04/13 08:00 UTC NOAA

VOCB 130800Z 03006KT 7000 SCT015 34/18 Q1012 NOSIG


Station Type Date Time Source
VOCB Decoded METAR 2021/04/13 08:00 UTC NOAA

Coimbatore / Peelamedu, India (VOCB) 11-02N 077-03E 399M
Apr 13, 2021 - 04:00 AM EDT / 2021.04.13 0800 UTC
Wind: from the NNE (030 degrees) at 7 MPH (6 KT):0
Visibility: 4 mile(s):0
Sky conditions: partly cloudy
Temperature: 93 F (34 C)
Heat index: 94.6 F (34.8 C):1
Dew Point: 64 F (18 C)
Relative Humidity: 38%
Pressure (altimeter): 29.88 in. Hg (1012 hPa)
ob: VOCB 130800Z 03006KT 7000 SCT015 34/18 Q1012 NOSIG
cycle: 8

Station Type Date Time Source
VOCB TAF 2021/04/13 06:00 UTC NOAA

TAF VOCB 130500Z 1306/1412 09010KT 6000 SCT015 SCT080
BECMG 1309/1315 4000 -TSRA/RA SCT012 FEW020TCU/CB BKN080
BECMG 1312/1313 VRB02KT 5000 HZ
TEMPO 1400/1403 3000 BR
BECMG 1406/1407 09010KT 6000

Example: see airport list